Terminal Aerodrome Forecast
Issued by NWS

Home | Current Version | Previous Version | Text Only | Print | Product List | Glossary Off
Versions: 1 2 3 4 5 6 7 8 9 10 11 12 13 14 15 16

096
FTUS43 KBIS 040126 AAA
TAFMOT
TAF AMD
KMOT 040126Z 0401/0424 27010KT 6SM -SN BKN025
     FM040400 31011KT P6SM OVC015
     FM041800 23006KT P6SM BKN030
     FM042100 20006KT P6SM BKN200=

USA.gov is the U.S. government's official web portal to all federal, state and local government web resources and services.